Time;durP1;ratioP1;P1;durP2;ratioP2;P2;SDS_P1;SDS_P2;PMS_P1;PMS_P2;Temp;Humidity;BMP_temperature;BMP_pressure;BME280_temperature;BME280_humidity;BME280_pressure;Samples;Min_cycle;Max_cycle;Signal;HPM_P1;HPM_P2
2022/03/14 00:01:36;;;;;;;19.80;16.33;;;9.00;99.90;;;;;;5042856;28;20105;-59
2022/03/14 00:04:03;;;;;;;19.63;15.38;;;9.00;99.90;;;;;;5043838;28;20076;-58
2022/03/14 00:06:29;;;;;;;17.00;14.68;;;8.90;99.90;;;;;;5047048;28;20056;-58
2022/03/14 00:08:57;;;;;;;18.50;14.63;;;8.90;99.90;;;;;;5046445;28;20571;-58
2022/03/14 00:11:26;;;;;;;17.95;13.85;;;8.80;99.90;;;;;;5047112;28;20041;-58
2022/03/14 00:13:55;;;;;;;16.55;12.88;;;8.90;99.90;;;;;;5045798;28;20068;-58
2022/03/14 00:16:25;;;;;;;14.38;12.30;;;8.90;99.90;;;;;;5047539;28;20041;-59
2022/03/14 00:18:53;;;;;;;14.63;12.93;;;8.90;99.90;;;;;;5011977;28;20107;-58
2022/03/14 00:21:23;;;;;;;12.70;11.07;;;8.90;99.90;;;;;;5046706;28;20056;-58
2022/03/14 00:23:54;;;;;;;12.73;11.35;;;8.90;99.90;;;;;;5044654;28;20044;-58
2022/03/14 00:26:22;;;;;;;12.93;10.93;;;9.00;99.90;;;;;;5046837;28;20041;-59
2022/03/14 00:28:49;;;;;;;16.35;12.27;;;9.10;99.90;;;;;;5028058;28;20071;-58
2022/03/14 00:31:15;;;;;;;13.48;11.45;;;9.10;99.90;;;;;;5046581;28;20519;-56
2022/03/14 00:33:42;;;;;;;13.65;10.57;;;9.20;99.90;;;;;;5046036;28;20099;-58
2022/03/14 00:36:08;;;;;;;15.32;10.73;;;9.30;99.90;;;;;;5045205;28;20057;-59
2022/03/14 00:38:36;;;;;;;12.60;10.80;;;9.30;99.90;;;;;;5046575;28;20052;-58
2022/03/14 00:41:07;;;;;;;13.45;10.52;;;9.30;99.90;;;;;;5046216;28;20399;-59
2022/03/14 00:43:34;;;;;;;15.32;10.70;;;9.30;99.90;;;;;;5050828;28;20712;-59
2022/03/14 00:46:01;;;;;;;13.52;10.02;;;9.30;99.90;;;;;;5064153;28;20051;-59
2022/03/14 00:48:27;;;;;;;14.68;11.02;;;9.30;99.90;;;;;;5066405;28;20479;-58
2022/03/14 00:50:54;;;;;;;13.02;10.10;;;9.30;99.90;;;;;;5066609;28;20047;-52
2022/03/14 00:53:21;;;;;;;13.20;10.18;;;9.30;99.90;;;;;;5065990;28;20048;-53
2022/03/14 00:55:47;;;;;;;13.27;10.45;;;9.30;99.90;;;;;;5027280;28;20045;-58
2022/03/14 00:58:14;;;;;;;13.73;10.80;;;9.40;99.90;;;;;;5044092;28;20045;-59
2022/03/14 01:00:40;;;;;;;11.70;10.10;;;9.40;99.90;;;;;;5044419;28;20188;-58
2022/03/14 01:03:06;;;;;;;10.80;9.32;;;9.40;99.90;;;;;;5027941;28;20048;-58
2022/03/14 01:05:32;;;;;;;10.48;8.30;;;9.40;99.90;;;;;;5044023;28;20587;-59
2022/03/14 01:08:02;;;;;;;10.25;8.23;;;9.40;99.90;;;;;;5027063;28;20091;-58
2022/03/14 01:10:29;;;;;;;10.77;8.48;;;9.40;99.90;;;;;;5046177;28;20147;-58
2022/03/14 01:12:55;;;;;;;10.80;9.25;;;9.40;99.90;;;;;;5044482;28;20087;-58
2022/03/14 01:15:21;;;;;;;9.23;7.90;;;9.40;99.90;;;;;;5043565;28;20561;-58
2022/03/14 01:17:47;;;;;;;12.20;9.13;;;9.40;99.90;;;;;;5045960;28;20059;-59
2022/03/14 01:20:14;;;;;;;9.20;8.02;;;9.40;99.90;;;;;;5045629;28;20048;-59
2022/03/14 01:22:40;;;;;;;11.48;8.25;;;9.40;99.90;;;;;;5045185;28;20053;-59
2022/03/14 01:25:06;;;;;;;9.07;8.07;;;9.40;99.90;;;;;;5045205;28;20057;-59
2022/03/14 01:27:33;;;;;;;9.02;7.97;;;9.50;99.90;;;;;;5043586;28;20106;-59
2022/03/14 01:29:59;;;;;;;8.50;7.18;;;9.50;99.90;;;;;;5044955;28;20743;-59
2022/03/14 01:32:25;;;;;;;9.77;7.60;;;9.40;99.90;;;;;;5043493;28;20558;-58
2022/03/14 01:34:51;;;;;;;9.70;6.72;;;9.50;99.90;;;;;;5010402;28;20114;-58
2022/03/14 01:37:18;;;;;;;10.85;7.70;;;9.50;99.90;;;;;;5044334;28;20386;-59
2022/03/14 01:39:46;;;;;;;9.05;7.00;;;9.50;99.90;;;;;;5044220;28;20045;-59
2022/03/14 01:42:19;;;;;;;8.65;6.40;;;9.50;99.90;;;;;;5043636;28;20056;-58
2022/03/14 01:44:47;;;;;;;7.72;6.38;;;9.60;99.90;;;;;;5042825;28;20056;-54
2022/03/14 01:47:14;;;;;;;6.95;6.25;;;9.60;99.90;;;;;;5044827;28;20485;-59
2022/03/14 01:49:45;;;;;;;8.18;6.32;;;9.50;99.90;;;;;;5044451;28;20067;-59
2022/03/14 01:52:13;;;;;;;7.57;6.65;;;9.50;99.90;;;;;;5043178;28;20520;-54
2022/03/14 01:54:40;;;;;;;7.72;6.65;;;9.50;99.90;;;;;;5042959;28;20053;-59
2022/03/14 01:57:08;;;;;;;8.30;6.03;;;9.60;99.90;;;;;;5044625;28;20049;-58
2022/03/14 01:59:35;;;;;;;7.30;6.53;;;9.50;99.90;;;;;;5026255;28;20126;-55
2022/03/14 02:02:11;;;;;;;9.80;6.82;;;9.50;99.90;;;;;;5042920;28;20065;-54
2022/03/14 02:04:37;;;;;;;8.45;6.22;;;9.50;99.90;;;;;;5044431;28;20057;-54
2022/03/14 02:07:04;;;;;;;8.23;6.30;;;9.40;99.90;;;;;;5042892;28;20467;-59
2022/03/14 02:09:30;;;;;;;7.85;6.70;;;9.50;99.90;;;;;;5043326;28;20076;-53
2022/03/14 02:11:56;;;;;;;8.02;6.25;;;9.40;99.90;;;;;;5026677;28;20057;-59
2022/03/14 02:14:23;;;;;;;7.43;6.53;;;9.40;99.90;;;;;;5044674;28;20079;-59
2022/03/14 02:16:50;;;;;;;7.88;5.95;;;9.30;99.90;;;;;;5044707;28;20060;-53
2022/03/14 02:19:17;;;;;;;7.60;6.22;;;9.30;99.90;;;;;;5042944;28;20527;-53
2022/03/14 02:21:44;;;;;;;7.80;6.43;;;9.30;99.90;;;;;;5044522;28;20519;-52
2022/03/14 02:24:11;;;;;;;6.80;6.00;;;9.30;99.90;;;;;;5044448;28;20113;-54
2022/03/14 02:26:40;;;;;;;8.18;6.07;;;9.30;99.90;;;;;;5045714;28;20064;-55
2022/03/14 02:29:12;;;;;;;7.07;6.35;;;9.30;99.90;;;;;;5045107;28;20053;-53
2022/03/14 02:31:38;;;;;;;7.17;6.30;;;9.30;99.90;;;;;;5045210;28;20390;-53
2022/03/14 02:34:05;;;;;;;6.95;5.82;;;9.30;99.90;;;;;;5043006;28;20478;-54
2022/03/14 02:36:32;;;;;;;7.95;5.93;;;9.20;99.90;;;;;;5059499;28;20473;-54
2022/03/14 02:38:58;;;;;;;7.25;5.68;;;9.20;99.90;;;;;;5026123;28;20045;-50
2022/03/14 02:41:25;;;;;;;7.90;5.30;;;9.20;99.90;;;;;;5042266;28;20049;-53
2022/03/14 02:43:55;;;;;;;7.22;4.93;;;9.30;99.90;;;;;;5042142;28;20052;-52
2022/03/14 02:46:21;;;;;;;7.55;5.00;;;9.30;99.90;;;;;;5041974;28;20056;-52
2022/03/14 02:48:47;;;;;;;6.65;4.93;;;9.40;99.90;;;;;;5041779;28;20048;-53
2022/03/14 02:51:13;;;;;;;6.75;5.07;;;9.40;99.90;;;;;;5042168;28;20091;-55
2022/03/14 02:53:39;;;;;;;6.15;4.95;;;9.40;99.90;;;;;;5042144;28;20063;-54
2022/03/14 02:56:06;;;;;;;6.65;5.10;;;9.40;99.90;;;;;;5024976;28;20511;-53
2022/03/14 02:58:32;;;;;;;6.38;4.55;;;9.40;99.90;;;;;;5042312;28;20052;-54
2022/03/14 03:01:02;;;;;;;5.72;4.68;;;9.50;99.90;;;;;;5041984;28;20128;-54
2022/03/14 03:03:28;;;;;;;6.70;4.45;;;9.50;99.90;;;;;;5041599;28;20055;-53
2022/03/14 03:05:54;;;;;;;6.55;5.00;;;9.50;99.90;;;;;;5042949;28;20060;-52
2022/03/14 03:08:22;;;;;;;7.00;4.68;;;9.50;99.90;;;;;;5042069;28;20506;-52
2022/03/14 03:10:49;;;;;;;6.85;3.85;;;9.50;99.90;;;;;;5041745;28;20504;-54
2022/03/14 03:13:16;;;;;;;5.00;4.10;;;9.50;99.90;;;;;;5041767;28;20056;-54
2022/03/14 03:15:42;;;;;;;6.15;4.22;;;9.50;99.90;;;;;;5058696;28;20049;-52
2022/03/14 03:18:12;;;;;;;6.10;4.57;;;9.40;99.90;;;;;;5043075;28;20049;-54
2022/03/14 03:20:38;;;;;;;5.90;4.40;;;9.40;99.90;;;;;;5041523;28;20048;-53
2022/03/14 03:23:06;;;;;;;7.05;4.15;;;9.40;99.90;;;;;;5025120;28;20052;-52
2022/03/14 03:25:32;;;;;;;5.30;4.28;;;9.40;99.90;;;;;;5041662;28;20186;-54
2022/03/14 03:27:58;;;;;;;6.25;4.70;;;9.40;99.90;;;;;;5042376;28;20048;-59
2022/03/14 03:30:24;;;;;;;5.85;4.72;;;9.40;99.90;;;;;;5041296;28;20045;-59
2022/03/14 03:32:50;;;;;;;5.50;4.43;;;9.30;99.90;;;;;;5041357;28;20057;-59
2022/03/14 03:35:16;;;;;;;4.63;4.10;;;9.30;99.90;;;;;;5041992;28;20052;-59
2022/03/14 03:37:42;;;;;;;4.97;3.67;;;9.40;99.90;;;;;;5041919;28;20131;-58
2022/03/14 03:40:09;;;;;;;5.10;4.05;;;9.40;99.90;;;;;;5040926;28;20043;-59
2022/03/14 03:42:35;;;;;;;5.70;4.18;;;9.40;99.90;;;;;;5025529;28;20122;-59
2022/03/14 03:45:01;;;;;;;5.28;4.05;;;9.50;99.90;;;;;;5043065;28;20045;-59
2022/03/14 03:47:28;;;;;;;5.22;3.80;;;9.50;99.90;;;;;;5040924;28;20044;-59
2022/03/14 03:49:54;;;;;;;6.57;4.00;;;9.50;99.90;;;;;;5040593;28;20049;-59
2022/03/14 03:52:20;;;;;;;5.10;3.92;;;9.60;99.90;;;;;;5043024;28;20052;-59
2022/03/14 03:54:46;;;;;;;5.35;3.55;;;9.60;99.90;;;;;;5041711;28;20045;-59
2022/03/14 03:57:12;;;;;;;5.35;3.92;;;9.60;99.90;;;;;;5047030;28;20136;-58
2022/03/14 03:59:39;;;;;;;5.15;3.65;;;9.60;99.90;;;;;;5062905;28;20040;-59
2022/03/14 04:02:07;;;;;;;4.82;3.85;;;9.60;99.90;;;;;;5062727;28;20056;-59
2022/03/14 04:04:35;;;;;;;5.28;4.20;;;9.70;99.90;;;;;;5063186;28;20060;-59
2022/03/14 04:07:02;;;;;;;4.75;3.78;;;9.70;99.90;;;;;;5062214;28;20465;-59
2022/03/14 04:09:28;;;;;;;4.60;3.80;;;9.70;99.90;;;;;;5042491;28;20060;-59
2022/03/14 04:11:54;;;;;;;4.57;3.50;;;9.70;99.90;;;;;;5024020;28;20060;-59
2022/03/14 04:14:21;;;;;;;6.50;4.13;;;9.70;99.90;;;;;;5040726;28;20064;-59
2022/03/14 04:16:47;;;;;;;5.13;3.40;;;9.70;99.90;;;;;;5042715;28;20052;-59
2022/03/14 04:19:16;;;;;;;6.07;3.83;;;9.60;99.90;;;;;;5040807;28;20055;-59
2022/03/14 04:21:46;;;;;;;5.35;3.92;;;9.60;99.90;;;;;;5042800;28;20045;-52
2022/03/14 04:24:12;;;;;;;6.32;4.05;;;9.60;99.90;;;;;;5042353;28;20064;-50
2022/03/14 04:26:38;;;;;;;4.50;3.38;;;9.60;99.90;;;;;;5024204;28;20048;-54
2022/03/14 04:29:04;;;;;;;6.15;3.67;;;9.60;99.90;;;;;;5040934;28;20450;-59
2022/03/14 04:31:30;;;;;;;4.85;3.88;;;9.60;99.90;;;;;;5042332;28;20500;-53
2022/03/14 04:33:58;;;;;;;4.55;3.88;;;9.60;99.90;;;;;;5008936;28;20056;-52
2022/03/14 04:36:24;;;;;;;5.43;3.85;;;9.60;99.90;;;;;;5042908;28;20151;-52
2022/03/14 04:38:50;;;;;;;5.30;4.07;;;9.60;99.90;;;;;;5042865;28;20239;-54
2022/03/14 04:41:16;;;;;;;5.20;3.95;;;9.60;99.90;;;;;;5042429;28;20056;-54
2022/03/14 04:43:42;;;;;;;6.18;4.18;;;9.60;99.90;;;;;;5042844;28;20056;-53
2022/03/14 04:46:09;;;;;;;4.97;4.00;;;9.60;99.90;;;;;;5042122;28;20088;-54
2022/03/14 04:48:35;;;;;;;5.45;4.07;;;9.70;99.90;;;;;;5041089;28;20124;-50
2022/03/14 04:51:01;;;;;;;5.55;4.20;;;9.60;99.90;;;;;;5041417;28;20041;-54
2022/03/14 04:53:27;;;;;;;5.63;4.40;;;9.60;99.90;;;;;;5027382;28;20056;-54
2022/03/14 04:55:53;;;;;;;5.65;4.00;;;9.60;99.90;;;;;;5044089;28;20512;-53
2022/03/14 04:58:22;;;;;;;5.60;4.38;;;9.60;99.90;;;;;;5046718;28;20044;-54
2022/03/14 05:00:49;;;;;;;5.93;4.50;;;9.60;99.90;;;;;;5027584;28;20045;-54
2022/03/14 05:03:15;;;;;;;5.40;4.47;;;9.60;99.90;;;;;;5028119;28;20084;-50
2022/03/14 05:05:41;;;;;;;5.63;4.60;;;9.60;99.90;;;;;;5045433;28;20045;-53
2022/03/14 05:08:07;;;;;;;5.63;4.40;;;9.60;99.90;;;;;;5010833;28;20057;-52
2022/03/14 05:10:34;;;;;;;5.40;4.50;;;9.60;99.90;;;;;;5045859;28;20508;-53
2022/03/14 05:13:01;;;;;;;6.80;4.63;;;9.50;99.90;;;;;;5043915;28;20049;-54
2022/03/14 05:15:28;;;;;;;5.90;4.82;;;9.50;99.90;;;;;;5044185;28;20416;-54
2022/03/14 05:17:54;;;;;;;6.18;4.50;;;9.50;99.90;;;;;;5045087;28;20161;-52
2022/03/14 05:20:20;;;;;;;5.60;4.15;;;9.50;99.90;;;;;;5045136;28;20044;-52
2022/03/14 05:22:48;;;;;;;6.03;4.53;;;9.50;99.90;;;;;;5044971;28;20059;-54
2022/03/14 05:25:16;;;;;;;5.70;4.65;;;9.50;99.90;;;;;;5045584;28;20045;-50
2022/03/14 05:27:42;;;;;;;6.55;4.90;;;9.60;99.90;;;;;;5045697;28;20048;-53
2022/03/14 05:30:09;;;;;;;4.82;3.97;;;9.50;99.90;;;;;;5043396;28;20060;-52
2022/03/14 05:32:36;;;;;;;6.63;4.57;;;9.50;99.90;;;;;;5045456;28;20061;-50
2022/03/14 05:35:03;;;;;;;5.45;4.07;;;9.50;99.90;;;;;;5045093;28;20052;-49
2022/03/14 05:37:29;;;;;;;5.95;4.82;;;9.50;99.90;;;;;;5045060;28;20052;-52
2022/03/14 05:39:56;;;;;;;6.78;5.55;;;9.40;99.90;;;;;;5044682;28;20048;-52
2022/03/14 05:42:23;;;;;;;5.93;4.68;;;9.40;99.90;;;;;;5045218;28;20468;-50
2022/03/14 05:44:49;;;;;;;6.22;4.90;;;9.40;99.90;;;;;;5026712;28;20060;-52
2022/03/14 05:47:15;;;;;;;6.70;5.70;;;9.30;99.90;;;;;;5043629;28;20427;-51
2022/03/14 05:49:41;;;;;;;6.68;5.22;;;9.30;99.90;;;;;;5043708;28;20060;-58
2022/03/14 05:52:07;;;;;;;6.10;4.82;;;9.30;99.90;;;;;;5026211;28;20092;-58
2022/03/14 05:54:34;;;;;;;7.20;5.85;;;9.20;99.90;;;;;;5043630;28;20152;-58
2022/03/14 05:57:00;;;;;;;6.90;4.85;;;9.20;99.90;;;;;;5044721;28;20136;-58
2022/03/14 05:59:27;;;;;;;7.13;5.28;;;9.10;99.90;;;;;;5043509;28;20061;-58
2022/03/14 06:01:53;;;;;;;6.43;5.80;;;9.10;99.90;;;;;;5044195;28;20121;-58
2022/03/14 06:04:19;;;;;;;6.65;5.78;;;9.10;99.90;;;;;;5026936;28;20102;-58
2022/03/14 06:06:45;;;;;;;6.32;5.47;;;9.00;99.90;;;;;;5042920;28;20052;-58
2022/03/14 06:09:11;;;;;;;7.45;6.30;;;9.00;99.90;;;;;;5044441;28;20041;-58
2022/03/14 06:11:38;;;;;;;8.25;6.00;;;8.90;99.90;;;;;;5043263;28;20057;-58
2022/03/14 06:14:05;;;;;;;6.65;5.65;;;8.90;99.90;;;;;;5044482;28;20515;-58
2022/03/14 06:16:31;;;;;;;7.00;5.78;;;8.90;99.90;;;;;;5044466;28;20056;-58
2022/03/14 06:18:58;;;;;;;7.13;6.20;;;8.90;99.90;;;;;;5044410;28;20227;-58
2022/03/14 06:21:24;;;;;;;7.47;5.95;;;8.90;99.90;;;;;;5045388;28;20132;-54
2022/03/14 06:23:50;;;;;;;7.93;6.40;;;8.90;99.90;;;;;;5044912;28;20040;-53
2022/03/14 06:26:17;;;;;;;7.68;6.45;;;8.90;99.90;;;;;;5045028;28;20084;-53
2022/03/14 06:28:43;;;;;;;7.10;6.40;;;8.80;99.90;;;;;;5043814;28;20087;-54
2022/03/14 06:31:10;;;;;;;9.35;7.03;;;8.80;99.90;;;;;;5045029;28;20425;-53
2022/03/14 06:33:37;;;;;;;7.55;6.70;;;8.80;99.90;;;;;;5044338;28;20516;-53
2022/03/14 06:36:04;;;;;;;7.07;6.25;;;8.80;99.90;;;;;;5025940;28;20068;-54
2022/03/14 06:38:32;;;;;;;8.73;7.28;;;8.80;99.90;;;;;;5043245;28;20049;-51
2022/03/14 06:40:59;;;;;;;7.88;6.53;;;8.80;99.90;;;;;;5043427;28;20605;-53
2022/03/14 06:43:25;;;;;;;8.02;6.85;;;8.80;99.90;;;;;;5042339;28;20048;-50
2022/03/14 06:45:52;;;;;;;7.82;6.82;;;8.80;99.90;;;;;;5025533;28;20061;-55
2022/03/14 06:48:18;;;;;;;8.02;7.22;;;8.80;99.90;;;;;;5041924;28;20157;-53
2022/03/14 06:50:44;;;;;;;8.90;7.28;;;8.80;99.90;;;;;;5041768;28;20045;-54
2022/03/14 06:53:11;;;;;;;8.30;6.60;;;8.80;99.90;;;;;;5043859;28;20041;-49
2022/03/14 06:55:37;;;;;;;7.80;7.00;;;8.80;99.90;;;;;;5043871;28;20049;-54
2022/03/14 06:58:03;;;;;;;9.02;7.22;;;8.70;99.90;;;;;;5043527;28;20045;-54
2022/03/14 07:00:29;;;;;;;8.52;7.00;;;8.80;99.90;;;;;;5041552;28;20056;-54
2022/03/14 07:02:56;;;;;;;8.90;7.75;;;8.70;99.90;;;;;;5041183;28;20051;-51
2022/03/14 07:05:24;;;;;;;8.30;7.43;;;8.80;99.90;;;;;;5043364;28;20508;-54
2022/03/14 07:07:51;;;;;;;10.95;7.90;;;8.80;99.90;;;;;;5042999;28;20048;-53
2022/03/14 07:10:18;;;;;;;9.45;7.68;;;8.80;99.90;;;;;;5054850;28;20411;-55
2022/03/14 07:12:49;;;;;;;8.18;7.25;;;8.80;99.90;;;;;;5045160;28;20175;-52
2022/03/14 07:15:21;;;;;;;11.35;7.68;;;8.80;99.90;;;;;;5063241;28;20052;-53
2022/03/14 07:17:49;;;;;;;8.90;7.88;;;8.80;99.90;;;;;;5063854;28;20040;-53
2022/03/14 07:20:18;;;;;;;9.73;8.05;;;8.80;99.90;;;;;;5056605;28;20048;-55
2022/03/14 07:22:56;;;;;;;10.05;8.18;;;8.80;99.90;;;;;;5025226;28;20045;-54
2022/03/14 07:25:27;;;;;;;10.60;8.40;;;8.80;99.90;;;;;;5042294;28;20087;-54
2022/03/14 07:27:55;;;;;;;11.20;9.30;;;8.80;99.90;;;;;;5043523;28;20053;-53
2022/03/14 07:30:22;;;;;;;10.82;8.45;;;8.80;99.90;;;;;;5025705;28;20040;-52
2022/03/14 07:32:50;;;;;;;10.80;8.40;;;8.90;99.90;;;;;;5041733;28;20084;-52
2022/03/14 07:35:16;;;;;;;10.48;8.73;;;8.90;99.90;;;;;;5042004;28;20465;-51
2022/03/14 07:37:44;;;;;;;10.57;9.15;;;8.90;99.90;;;;;;5042974;28;20041;-54
2022/03/14 07:40:12;;;;;;;9.60;8.60;;;8.90;99.90;;;;;;5037704;28;20404;-53
2022/03/14 07:42:49;;;;;;;10.77;9.02;;;8.90;99.90;;;;;;5042051;28;20068;-52
2022/03/14 07:45:20;;;;;;;10.75;9.23;;;9.00;99.90;;;;;;5039366;28;20041;-52
2022/03/14 07:47:46;;;;;;;10.43;9.23;;;9.00;99.90;;;;;;5042178;28;20041;-54
2022/03/14 07:50:15;;;;;;;10.50;9.40;;;9.00;99.90;;;;;;5023767;28;20052;-58
2022/03/14 07:52:42;;;;;;;11.60;9.98;;;9.10;99.90;;;;;;5042052;28;20052;-58
2022/03/14 07:55:10;;;;;;;10.88;9.20;;;9.10;99.90;;;;;;5042061;28;20043;-57
2022/03/14 07:57:37;;;;;;;13.23;10.93;;;9.10;99.90;;;;;;5042301;28;20468;-58
2022/03/14 08:00:08;;;;;;;10.82;9.73;;;9.20;99.90;;;;;;5040110;28;20123;-58
2022/03/14 08:02:42;;;;;;;11.23;10.00;;;9.20;99.90;;;;;;5040440;28;20130;-58
2022/03/14 08:05:09;;;;;;;10.32;9.10;;;9.20;99.90;;;;;;5042303;28;20705;-58
2022/03/14 08:07:37;;;;;;;10.27;9.18;;;9.30;99.90;;;;;;5041543;28;20393;-58
2022/03/14 08:10:09;;;;;;;11.10;9.43;;;9.30;99.90;;;;;;5039200;28;20049;-58
2022/03/14 08:12:46;;;;;;;11.70;9.63;;;9.30;99.90;;;;;;5040405;28;20530;-58
2022/03/14 08:15:31;;;;;;;11.10;10.00;;;9.30;99.90;;;;;;5041462;28;20472;-58
2022/03/14 08:17:59;;;;;;;11.32;9.77;;;9.30;99.90;;;;;;5041892;28;20057;-58
2022/03/14 08:20:27;;;;;;;11.80;10.27;;;9.30;99.90;;;;;;5042010;28;20041;-58
2022/03/14 08:22:55;;;;;;;11.70;10.25;;;9.30;99.90;;;;;;5040313;28;20045;-59
2022/03/14 08:25:22;;;;;;;12.63;10.52;;;9.40;99.90;;;;;;5040972;28;20123;-58
2022/03/14 08:27:49;;;;;;;12.95;11.38;;;9.40;99.90;;;;;;5043912;28;20418;-58
2022/03/14 08:30:16;;;;;;;13.15;11.65;;;9.30;99.90;;;;;;5045162;28;20116;-58
2022/03/14 08:32:44;;;;;;;13.27;11.88;;;9.40;99.90;;;;;;5045548;28;20417;-58
2022/03/14 08:35:11;;;;;;;13.55;12.15;;;9.40;99.90;;;;;;5045376;28;20048;-58
2022/03/14 08:37:39;;;;;;;14.10;11.73;;;9.40;99.90;;;;;;5046109;28;20285;-58
2022/03/14 08:40:09;;;;;;;13.93;11.30;;;9.30;99.90;;;;;;5044317;28;20045;-58
2022/03/14 08:42:38;;;;;;;13.13;11.35;;;9.30;99.90;;;;;;5045906;28;20518;-58
2022/03/14 08:45:06;;;;;;;12.30;11.00;;;9.30;99.90;;;;;;5045441;28;20220;-58
2022/03/14 08:47:33;;;;;;;13.80;12.02;;;9.30;99.90;;;;;;5045550;28;20048;-58
2022/03/14 08:49:59;;;;;;;13.63;12.20;;;9.30;99.90;;;;;;5060480;28;20539;-58
2022/03/14 08:52:25;;;;;;;13.68;12.25;;;9.30;99.90;;;;;;5045332;28;20056;-58
2022/03/14 08:54:51;;;;;;;13.57;12.27;;;9.30;99.90;;;;;;5027040;28;20048;-58
2022/03/14 08:57:17;;;;;;;14.32;12.77;;;9.30;99.90;;;;;;5044986;28;20508;-58
2022/03/14 08:59:44;;;;;;;15.45;13.93;;;9.30;99.90;;;;;;5045390;28;20121;-58
2022/03/14 09:02:10;;;;;;;15.43;13.45;;;9.30;99.90;;;;;;5044561;28;20924;-58
2022/03/14 09:04:37;;;;;;;15.50;13.60;;;9.30;99.90;;;;;;5044870;28;20052;-55
2022/03/14 09:07:06;;;;;;;16.55;14.85;;;9.30;99.90;;;;;;5045567;28;20090;-52
2022/03/14 09:09:34;;;;;;;18.38;16.33;;;9.30;99.90;;;;;;5026615;28;20492;-53
2022/03/14 09:12:01;;;;;;;22.30;19.67;;;9.20;99.90;;;;;;5044590;28;20045;-54
2022/03/14 09:14:27;;;;;;;23.25;20.58;;;9.20;99.90;;;;;;5044592;28;20045;-53
2022/03/14 09:16:53;;;;;;;27.48;21.83;;;9.10;99.90;;;;;;5026627;28;20052;-53
2022/03/14 09:19:20;;;;;;;29.50;22.75;;;9.00;99.90;;;;;;5042568;28;20047;-53
2022/03/14 09:21:48;;;;;;;26.60;22.52;;;9.00;99.90;;;;;;5044620;28;20103;-53
2022/03/14 09:24:17;;;;;;;25.48;20.30;;;8.90;99.90;;;;;;5042692;28;20068;-52
2022/03/14 09:26:43;;;;;;;25.23;20.25;;;9.00;99.90;;;;;;5026652;28;20574;-54
2022/03/14 09:29:09;;;;;;;30.02;21.52;;;9.00;99.90;;;;;;5044469;28;20073;-58
2022/03/14 09:31:35;;;;;;;27.13;21.38;;;9.00;99.90;;;;;;5043833;28;20144;-58
2022/03/14 09:34:02;;;;;;;23.60;19.30;;;8.90;99.90;;;;;;5042535;28;20049;-59
2022/03/14 09:36:29;;;;;;;23.73;19.58;;;8.90;99.90;;;;;;5026559;28;20528;-58
2022/03/14 09:38:55;;;;;;;22.45;18.45;;;8.90;99.90;;;;;;5039758;28;20045;-58
2022/03/14 09:41:24;;;;;;;25.00;19.35;;;8.90;99.90;;;;;;5043954;28;20386;-58
2022/03/14 09:43:52;;;;;;;24.83;19.40;;;8.90;99.90;;;;;;5045395;28;20048;-58
2022/03/14 09:46:21;;;;;;;27.92;20.10;;;8.90;99.90;;;;;;5042975;28;20106;-58
2022/03/14 09:48:54;;;;;;;30.27;21.17;;;9.00;99.90;;;;;;5059921;28;20284;-58
2022/03/14 09:51:23;;;;;;;26.10;20.58;;;9.00;99.90;;;;;;5044111;28;20504;-58
2022/03/14 09:53:50;;;;;;;29.73;19.92;;;9.00;99.90;;;;;;5044091;28;20514;-58
2022/03/14 09:56:16;;;;;;;27.65;19.20;;;9.00;99.90;;;;;;5043988;28;20587;-58
2022/03/14 09:58:47;;;;;;;28.70;20.33;;;8.90;99.90;;;;;;5042725;28;20088;-58
2022/03/14 10:01:13;;;;;;;28.00;20.85;;;9.00;99.90;;;;;;5043954;28;20214;-58
2022/03/14 10:03:39;;;;;;;28.38;20.05;;;9.00;99.90;;;;;;5043982;28;20056;-58
2022/03/14 10:06:06;;;;;;;23.98;18.45;;;9.00;99.90;;;;;;5042180;28;20443;-58
2022/03/14 10:08:33;;;;;;;27.52;20.52;;;9.10;99.90;;;;;;5043779;28;20052;-58
2022/03/14 10:10:59;;;;;;;30.00;21.95;;;9.10;99.90;;;;;;5042487;28;20552;-58
2022/03/14 10:13:25;;;;;;;30.38;21.95;;;9.20;99.90;;;;;;5042209;28;20048;-59
2022/03/14 10:15:52;;;;;;;28.60;20.05;;;9.20;99.90;;;;;;5043497;28;20052;-59
2022/03/14 10:18:19;;;;;;;30.20;19.83;;;9.30;99.90;;;;;;5041880;28;20052;-59
2022/03/14 10:20:55;;;;;;;31.30;21.50;;;9.20;99.90;;;;;;5043571;28;20045;-60
2022/03/14 10:23:39;;;;;;;29.38;20.35;;;9.30;99.90;;;;;;5043758;28;20040;-60
2022/03/14 10:26:06;;;;;;;28.63;20.45;;;9.30;99.90;;;;;;5044821;28;20041;-59
2022/03/14 10:28:36;;;;;;;29.00;20.85;;;9.30;99.90;;;;;;5043460;28;20044;-59
2022/03/14 10:31:03;;;;;;;26.65;19.27;;;9.30;99.90;;;;;;5042844;28;20501;-59
2022/03/14 10:33:31;;;;;;;28.50;20.40;;;9.40;99.90;;;;;;5042880;28;20512;-59
2022/03/14 10:35:59;;;;;;;28.58;20.42;;;9.40;99.90;;;;;;5043603;28;20400;-59
2022/03/14 10:38:26;;;;;;;25.35;18.88;;;9.40;99.90;;;;;;5025153;28;20037;-59
2022/03/14 10:40:56;;;;;;;22.88;17.73;;;9.50;99.90;;;;;;5041800;28;20299;-59
2022/03/14 10:43:37;;;;;;;25.05;17.08;;;9.50;99.90;;;;;;5024663;28;20127;-59
2022/03/14 10:46:04;;;;;;;26.80;17.38;;;9.60;99.90;;;;;;5042931;28;20045;-59
2022/03/14 10:48:31;;;;;;;28.60;17.58;;;9.60;99.90;;;;;;5040591;28;20389;-59
2022/03/14 10:51:03;;;;;;;25.05;17.13;;;9.70;99.90;;;;;;5043119;28;20048;-59
2022/03/14 10:53:29;;;;;;;28.27;16.88;;;9.70;99.90;;;;;;5042131;28;20053;-59
2022/03/14 10:56:00;;;;;;;22.67;16.02;;;9.80;99.90;;;;;;5043577;28;20045;-60
2022/03/14 10:58:33;;;;;;;27.60;17.70;;;9.80;99.90;;;;;;5043232;28;20408;-58
2022/03/14 11:01:02;;;;;;;24.77;17.98;;;9.80;99.90;;;;;;5041532;28;20041;-58
2022/03/14 11:03:30;;;;;;;24.38;17.27;;;9.90;99.90;;;;;;5041290;28;20701;-58
2022/03/14 11:06:01;;;;;;;19.63;15.00;;;9.90;99.90;;;;;;5041698;28;20124;-58
2022/03/14 11:08:42;;;;;;;24.27;15.45;;;9.90;99.90;;;;;;5041283;28;20045;-58
2022/03/14 11:11:14;;;;;;;24.00;15.25;;;9.90;99.90;;;;;;5042428;28;20076;-58
2022/03/14 11:13:43;;;;;;;23.55;14.13;;;10.00;99.90;;;;;;5041029;28;20127;-58
2022/03/14 11:16:30;;;;;;;19.88;12.40;;;10.00;99.90;;;;;;5042928;28;20112;-58
2022/03/14 11:18:57;;;;;;;19.35;11.93;;;10.10;99.90;;;;;;5041089;28;20037;-58
2022/03/14 11:21:25;;;;;;;22.38;11.77;;;10.00;99.90;;;;;;5041014;28;20404;-58
2022/03/14 11:23:53;;;;;;;16.73;11.73;;;10.10;99.90;;;;;;5042286;28;20052;-58
2022/03/14 11:26:22;;;;;;;17.75;11.68;;;10.00;99.90;;;;;;5040633;28;20521;-54
2022/03/14 11:28:50;;;;;;;21.70;12.73;;;10.00;99.90;;;;;;5040927;28;20051;-61
2022/03/14 11:31:21;;;;;;;24.08;13.43;;;10.00;99.90;;;;;;5041743;28;20036;-58
2022/03/14 11:33:48;;;;;;;24.65;14.18;;;10.00;99.90;;;;;;5042074;28;20055;-58
2022/03/14 11:36:20;;;;;;;18.90;12.68;;;10.10;99.90;;;;;;5056586;28;20501;-58
2022/03/14 11:38:47;;;;;;;20.15;12.43;;;10.10;99.90;;;;;;5042302;28;20045;-58
2022/03/14 11:41:14;;;;;;;20.13;11.75;;;10.10;99.90;;;;;;5042352;28;20076;-54
2022/03/14 11:43:41;;;;;;;16.45;10.82;;;10.10;99.90;;;;;;5042314;28;20049;-54
2022/03/14 11:46:07;;;;;;;18.20;9.82;;;10.20;99.90;;;;;;5024522;28;20511;-55
2022/03/14 11:48:35;;;;;;;16.80;10.63;;;10.20;99.90;;;;;;5057330;28;20057;-53
2022/03/14 11:51:04;;;;;;;18.70;9.57;;;10.30;99.90;;;;;;5040846;28;20417;-55
2022/03/14 11:53:34;;;;;;;16.17;9.55;;;10.30;99.90;;;;;;5042608;28;20056;-55
2022/03/14 11:56:06;;;;;;;19.38;9.55;;;10.30;99.90;;;;;;5040653;28;20055;-54
2022/03/14 11:58:38;;;;;;;15.77;9.43;;;10.30;99.90;;;;;;5042304;28;20117;-55
2022/03/14 12:01:24;;;;;;;19.95;11.13;;;10.40;99.90;;;;;;5043168;28;20041;-53
2022/03/14 12:03:54;;;;;;;19.30;11.77;;;10.50;99.90;;;;;;5045996;28;20131;-53
2022/03/14 12:06:55;;;;;;;16.40;11.85;;;10.50;99.90;;;;;;5060129;28;20053;-55
2022/03/14 12:09:27;;;;;;;21.63;12.70;;;10.50;99.90;;;;;;5005646;28;20041;-55
2022/03/14 12:11:54;;;;;;;20.67;13.57;;;10.50;99.90;;;;;;5038138;28;20053;-59
2022/03/14 12:14:39;;;;;;;19.85;13.85;;;10.60;99.90;;;;;;5044454;28;20049;-59
2022/03/14 12:17:14;;;;;;;22.88;15.35;;;10.60;99.90;;;;;;5042859;28;20041;-59
2022/03/14 12:19:52;;;;;;;18.65;15.23;;;10.70;99.90;;;;;;5045401;28;20052;-59
2022/03/14 12:22:30;;;;;;;22.38;15.45;;;10.70;99.90;;;;;;5044078;28;20049;-59
2022/03/14 12:25:00;;;;;;;21.92;15.48;;;10.80;99.90;;;;;;5044781;28;20436;-59
2022/03/14 12:27:29;;;;;;;20.77;15.55;;;10.90;99.90;;;;;;5045063;28;20384;-59
2022/03/14 12:29:57;;;;;;;20.42;15.50;;;11.00;99.90;;;;;;5046053;28;20044;-59
2022/03/14 12:32:29;;;;;;;22.65;16.25;;;11.10;99.90;;;;;;5045236;28;20052;-59
2022/03/14 12:35:06;;;;;;;;;;;11.10;99.90;;;;;;5046962;28;20045;-59
2022/03/14 12:37:50;;;;;;;19.92;17.33;;;11.20;99.90;;;;;;5027427;28;19924;-59
2022/03/14 12:40:18;;;;;;;23.40;18.25;;;11.30;99.90;;;;;;5045060;28;20037;-55
2022/03/14 12:42:47;;;;;;;21.13;16.75;;;11.40;99.90;;;;;;5045371;28;20049;-59
2022/03/14 12:45:29;;;;;;;26.50;19.05;;;11.50;99.90;;;;;;5045409;28;20385;-59
2022/03/14 12:47:58;;;;;;;24.25;19.15;;;11.60;99.90;;;;;;5027671;28;20048;-56
2022/03/14 12:50:45;;;;;;;18.88;16.90;;;11.60;99.90;;;;;;5044137;28;20275;-59